Weather at Bradley International Airport

Public forecast

Using degrees Fahrenheit for public forecast. Weather courtesy of forecast.io.

Current aviation weather report (METAR) for Bradley International Airport

Report is more than 2 hours old.

Retrieved 2021/03/08 02:51 UTC (3 hours ago):

KBDL 080251Z 31007KT 10SM CLR M03/M12 A3036 RMK AO2 SLP281 T10281122 51014

Aviation forecast (TAF) for Bradley International Airport

Retrieved 2021-03-08 00:36 UTC (5 hours ago):

TAF KBDL 072333Z 0800/0906 32008KT P6SM FEW250 FM082000 26004KT P6SM FEW250 FM090400 19005KT P6SM BKN200